Time;durP1;ratioP1;P1;durP2;ratioP2;P2;SDS_P1;SDS_P2;PMS_P1;PMS_P2;Temp;Humidity;BMP_temperature;BMP_pressure;BME280_temperature;BME280_humidity;BME280_pressure;Samples;Min_cycle;Max_cycle;Signal;HPM_P1;HPM_P2
2023/09/27 00:01:28;;;;;;;7.90;5.90;;;;;15.00;101451.00;;;;4921204;29;20742;-69
2023/09/27 00:04:15;;;;;;;10.57;5.43;;;;;15.00;101449.00;;;;4914780;28;20260;-70
2023/09/27 00:07:01;;;;;;;6.60;5.50;;;;;14.90;101454.00;;;;4922627;29;20257;-71
2023/09/27 00:09:48;;;;;;;7.07;5.70;;;;;14.90;101456.00;;;;4926912;29;20242;-67
2023/09/27 00:12:34;;;;;;;8.87;5.83;;;;;14.90;101453.00;;;;4925355;29;20717;-71
2023/09/27 00:15:21;;;;;;;5.97;5.37;;;;;15.00;101458.00;;;;4929003;29;20236;-70
2023/09/27 00:18:09;;;;;;;6.83;5.77;;;;;14.90;101451.00;;;;4923254;29;20843;-71
2023/09/27 00:20:55;;;;;;;9.20;6.07;;;;;14.90;101466.00;;;;4918638;29;20235;-70
2023/09/27 00:23:42;;;;;;;7.50;5.57;;;;;14.90;101466.00;;;;4919555;29;20228;-67
2023/09/27 00:26:28;;;;;;;6.70;5.50;;;;;14.80;101467.00;;;;4923734;28;20256;-71
2023/09/27 00:29:14;;;;;;;7.90;5.73;;;;;14.80;101468.00;;;;4926996;28;20609;-69
2023/09/27 00:32:01;;;;;;;7.37;5.73;;;;;14.80;101472.00;;;;4932165;28;20241;-72
2023/09/27 00:34:49;;;;;;;9.90;5.80;;;;;14.70;101475.00;;;;4917028;28;20771;-71
2023/09/27 00:37:36;;;;;;;9.10;5.37;;;;;14.70;101481.00;;;;4922526;29;20320;-71
2023/09/27 00:40:24;;;;;;;7.20;5.20;;;;;14.70;101474.00;;;;4921001;28;20366;-68
2023/09/27 00:43:11;;;;;;;7.07;5.47;;;;;14.60;101467.00;;;;4909227;29;20236;-72
2023/09/27 00:46:01;;;;;;;8.23;5.90;;;;;14.60;101472.00;;;;4925687;28;20968;-70
2023/09/27 00:48:48;;;;;;;8.30;6.00;;;;;14.60;101465.00;;;;4917666;29;20426;-71
2023/09/27 00:51:36;;;;;;;7.03;5.57;;;;;14.60;101481.00;;;;4928199;29;20243;-70
2023/09/27 00:54:22;;;;;;;8.33;5.63;;;;;14.60;101484.00;;;;4930065;28;20623;-70
2023/09/27 00:57:09;;;;;;;9.80;6.07;;;;;14.60;101486.00;;;;4932895;28;20289;-68
2023/09/27 00:59:55;;;;;;;10.00;5.70;;;;;14.60;101492.00;;;;4931330;28;20238;-70
2023/09/27 01:02:42;;;;;;;7.90;6.00;;;;;14.50;101505.00;;;;4920620;28;20240;-70
2023/09/27 01:05:28;;;;;;;9.93;6.27;;;;;14.50;101511.00;;;;4930469;29;20437;-71
2023/09/27 01:08:18;;;;;;;7.83;6.23;;;;;14.60;101507.00;;;;4924100;29;20607;-70
2023/09/27 01:11:05;;;;;;;10.70;7.10;;;;;14.70;101507.00;;;;4927877;29;20243;-70
2023/09/27 01:13:51;;;;;;;8.97;6.47;;;;;14.60;101506.00;;;;4921653;29;20843;-70
2023/09/27 01:16:37;;;;;;;12.03;6.37;;;;;14.60;101519.00;;;;4925739;29;20234;-69
2023/09/27 01:19:24;;;;;;;8.10;6.20;;;;;14.60;101520.00;;;;4923244;29;20298;-71
2023/09/27 01:22:10;;;;;;;10.13;6.07;;;;;14.50;101519.00;;;;4921155;29;20761;-70
2023/09/27 01:25:00;;;;;;;9.33;6.00;;;;;14.50;101515.00;;;;4926076;29;20366;-70
2023/09/27 01:27:48;;;;;;;7.37;5.97;;;;;14.50;101523.00;;;;4921010;29;20239;-70
2023/09/27 01:30:36;;;;;;;8.30;6.30;;;;;14.40;101520.00;;;;4917340;29;20361;-70
2023/09/27 01:33:22;;;;;;;8.10;5.83;;;;;14.40;101516.00;;;;4919024;28;20292;-69
2023/09/27 01:36:11;;;;;;;8.63;5.47;;;;;14.30;101508.00;;;;4924164;28;20233;-70
2023/09/27 01:38:57;;;;;;;9.90;6.13;;;;;14.30;101501.00;;;;4925257;29;20380;-69
2023/09/27 01:41:45;;;;;;;8.17;5.93;;;;;14.30;101504.00;;;;4912146;29;20238;-71
2023/09/27 01:44:32;;;;;;;7.73;6.00;;;;;14.30;101500.00;;;;4923428;29;20806;-70
2023/09/27 01:47:18;;;;;;;6.77;5.53;;;;;14.20;101507.00;;;;4927542;29;20324;-71
2023/09/27 01:50:06;;;;;;;9.23;5.87;;;;;14.20;101512.00;;;;4922334;29;20830;-72
2023/09/27 01:52:53;;;;;;;6.30;5.53;;;;;14.20;101519.00;;;;4915177;29;20313;-70
2023/09/27 01:55:39;;;;;;;7.10;5.70;;;;;14.20;101524.00;;;;4913209;29;20653;-70
2023/09/27 01:58:27;;;;;;;6.53;5.63;;;;;14.20;101531.00;;;;4924887;29;20228;-70
2023/09/27 02:01:13;;;;;;;7.57;6.00;;;;;14.20;101520.00;;;;4923380;29;20254;-69
2023/09/27 02:03:59;;;;;;;7.47;5.93;;;;;14.20;101525.00;;;;4920640;29;20227;-70
2023/09/27 02:06:46;;;;;;;8.17;5.97;;;;;14.20;101524.00;;;;4918893;29;20868;-69
2023/09/27 02:09:32;;;;;;;8.50;5.70;;;;;14.20;101511.00;;;;4920137;29;20234;-69
2023/09/27 02:12:18;;;;;;;7.83;5.67;;;;;14.20;101509.00;;;;4921977;29;20319;-71
2023/09/27 02:15:07;;;;;;;15.43;6.23;;;;;14.10;101501.00;;;;4917756;29;20670;-71
2023/09/27 02:17:54;;;;;;;7.17;5.73;;;;;14.10;101503.00;;;;4915983;29;20236;-70
2023/09/27 02:20:41;;;;;;;9.00;5.50;;;;;14.10;101506.00;;;;4924111;29;20419;-71
2023/09/27 02:23:27;;;;;;;7.47;5.57;;;;;14.00;101515.00;;;;4922861;29;20309;-70
2023/09/27 02:26:15;;;;;;;8.93;5.73;;;;;14.00;101506.00;;;;4926593;29;20224;-69
2023/09/27 02:29:02;;;;;;;5.67;5.17;;;;;14.00;101513.00;;;;4924781;29;20230;-69
2023/09/27 02:31:50;;;;;;;7.03;5.57;;;;;14.00;101502.00;;;;4921832;29;20711;-67
2023/09/27 02:34:36;;;;;;;7.33;5.77;;;;;13.90;101503.00;;;;4912524;28;20237;-69
2023/09/27 02:37:22;;;;;;;9.57;6.27;;;;;13.90;101502.00;;;;4922510;29;20716;-71
2023/09/27 02:40:12;;;;;;;9.10;6.37;;;;;13.90;101499.00;;;;4925517;29;20229;-71
2023/09/27 02:42:59;;;;;;;7.30;6.00;;;;;13.90;101499.00;;;;4922261;29;20238;-70
2023/09/27 02:45:46;;;;;;;8.17;5.50;;;;;13.90;101494.00;;;;4913957;29;20235;-70
2023/09/27 02:48:34;;;;;;;7.47;5.80;;;;;13.90;101488.00;;;;4920472;29;20243;-69
2023/09/27 02:51:21;;;;;;;7.60;5.50;;;;;13.80;101482.00;;;;4922737;29;20640;-71
2023/09/27 02:54:07;;;;;;;7.17;5.33;;;;;13.80;101465.00;;;;4918968;29;20588;-69
2023/09/27 02:56:54;;;;;;;7.70;5.50;;;;;13.80;101467.00;;;;4911594;29;20233;-68
2023/09/27 02:59:40;;;;;;;8.07;5.47;;;;;13.80;101457.00;;;;4912738;29;20335;-69
2023/09/27 03:02:27;;;;;;;9.77;5.40;;;;;13.70;101467.00;;;;4918216;29;20236;-70
2023/09/27 03:05:15;;;;;;;6.47;5.03;;;;;13.60;101457.00;;;;4920572;28;20235;-69
2023/09/27 03:08:02;;;;;;;8.03;5.33;;;;;13.60;101448.00;;;;4924852;29;20257;-70
2023/09/27 03:10:49;;;;;;;7.37;5.30;;;;;13.60;101455.00;;;;4921205;29;20229;-70
2023/09/27 03:13:36;;;;;;;7.57;5.80;;;;;13.60;101458.00;;;;4911890;29;20246;-72
2023/09/27 03:16:23;;;;;;;7.33;5.47;;;;;13.60;101454.00;;;;4924107;29;20309;-72
2023/09/27 03:19:10;;;;;;;9.90;6.43;;;;;13.60;101469.00;;;;4919854;29;20249;-71
2023/09/27 03:21:57;;;;;;;11.40;6.10;;;;;13.60;101466.00;;;;4921609;29;20730;-65
2023/09/27 03:24:44;;;;;;;9.03;5.70;;;;;13.60;101466.00;;;;4924475;29;20228;-74
2023/09/27 03:27:30;;;;;;;9.50;6.23;;;;;13.60;101457.00;;;;4918225;29;20320;-70
2023/09/27 03:30:17;;;;;;;9.00;6.77;;;;;13.60;101461.00;;;;4919316;29;20228;-70
2023/09/27 03:33:04;;;;;;;9.73;6.53;;;;;13.60;101466.00;;;;4923480;28;20295;-71
2023/09/27 03:35:50;;;;;;;10.13;6.83;;;;;13.60;101467.00;;;;4936076;28;20232;-68
2023/09/27 03:38:37;;;;;;;9.57;6.53;;;;;13.60;101468.00;;;;4918111;29;20694;-70
2023/09/27 03:41:23;;;;;;;8.93;6.37;;;;;13.60;101469.00;;;;4919107;29;20233;-70
2023/09/27 03:44:10;;;;;;;7.97;6.27;;;;;13.50;101457.00;;;;4919220;28;20234;-70
2023/09/27 03:46:56;;;;;;;8.90;6.40;;;;;13.50;101450.00;;;;4926113;29;20237;-68
2023/09/27 03:49:43;;;;;;;7.67;6.10;;;;;13.40;101457.00;;;;4924169;28;20233;-71
2023/09/27 03:52:30;;;;;;;10.47;6.50;;;;;13.40;101456.00;;;;4924250;29;20233;-69
2023/09/27 03:55:17;;;;;;;7.80;5.83;;;;;13.40;101460.00;;;;4921721;29;20246;-68
2023/09/27 03:58:04;;;;;;;9.77;7.07;;;;;13.40;101466.00;;;;4927065;29;20331;-70
2023/09/27 04:00:50;;;;;;;8.97;6.77;;;;;13.40;101466.00;;;;4926645;29;20380;-69
2023/09/27 04:03:37;;;;;;;8.10;6.43;;;;;13.40;101465.00;;;;4926339;28;20349;-70
2023/09/27 04:06:23;;;;;;;8.23;6.40;;;;;13.40;101463.00;;;;4919280;29;20233;-71
2023/09/27 04:09:09;;;;;;;7.93;6.40;;;;;13.30;101478.00;;;;4920111;28;20232;-71
2023/09/27 04:11:57;;;;;;;10.23;6.67;;;;;13.30;101483.00;;;;4919024;29;20245;-70
2023/09/27 04:14:44;;;;;;;9.63;6.67;;;;;13.20;101484.00;;;;4923133;29;20240;-69
2023/09/27 04:17:30;;;;;;;9.23;6.77;;;;;13.20;101478.00;;;;4924641;29;20232;-69
2023/09/27 04:20:18;;;;;;;9.60;6.60;;;;;13.20;101479.00;;;;4922178;29;20665;-71
2023/09/27 04:23:04;;;;;;;9.13;7.30;;;;;13.20;101484.00;;;;4916499;29;20238;-70
2023/09/27 04:25:51;;;;;;;9.63;6.93;;;;;13.20;101479.00;;;;4918016;29;20413;-69
2023/09/27 04:28:39;;;;;;;13.00;7.13;;;;;13.10;101489.00;;;;4922745;28;20285;-70
2023/09/27 04:31:25;;;;;;;10.30;7.63;;;;;13.10;101476.00;;;;4928009;29;20321;-69
2023/09/27 04:34:12;;;;;;;11.47;7.83;;;;;13.10;101490.00;;;;4921866;28;20240;-69
2023/09/27 04:36:58;;;;;;;10.13;7.27;;;;;13.10;101501.00;;;;4937006;28;20237;-70
2023/09/27 04:39:44;;;;;;;9.73;7.10;;;;;13.10;101489.00;;;;4911243;29;20260;-70
2023/09/27 04:42:31;;;;;;;9.27;7.13;;;;;13.10;101494.00;;;;4929924;28;20236;-70
2023/09/27 04:45:19;;;;;;;12.23;7.47;;;;;13.10;101495.00;;;;4919027;29;20253;-69
2023/09/27 04:48:06;;;;;;;15.03;8.00;;;;;13.10;101502.00;;;;4926148;29;20245;-70
2023/09/27 04:50:52;;;;;;;12.47;7.67;;;;;13.10;101496.00;;;;4923581;28;20283;-68
2023/09/27 04:53:39;;;;;;;11.23;7.83;;;;;13.10;101492.00;;;;4918419;29;20242;-70
2023/09/27 04:56:25;;;;;;;10.13;7.77;;;;;13.10;101488.00;;;;4922045;29;20229;-69
2023/09/27 04:59:11;;;;;;;9.80;7.90;;;;;13.10;101491.00;;;;4925347;29;20237;-69
2023/09/27 05:01:59;;;;;;;13.60;8.03;;;;;13.10;101483.00;;;;4926767;29;20241;-70
2023/09/27 05:04:47;;;;;;;11.90;8.17;;;;;13.10;101471.00;;;;4922232;29;20233;-71
2023/09/27 05:07:33;;;;;;;10.97;7.40;;;;;13.00;101486.00;;;;4918476;29;20235;-71
2023/09/27 05:10:19;;;;;;;9.93;7.53;;;;;13.00;101479.00;;;;4921844;29;20228;-70
2023/09/27 05:13:06;;;;;;;12.90;7.90;;;;;13.00;101487.00;;;;4920824;29;20240;-70
2023/09/27 05:15:53;;;;;;;11.00;7.20;;;;;12.90;101486.00;;;;4923188;29;20244;-68
2023/09/27 05:18:41;;;;;;;10.57;7.60;;;;;12.90;101489.00;;;;4917108;29;20229;-67
2023/09/27 05:21:27;;;;;;;16.93;8.17;;;;;12.90;101491.00;;;;4917003;29;20305;-70
2023/09/27 05:24:14;;;;;;;11.23;7.60;;;;;12.90;101491.00;;;;4920644;29;20240;-69
2023/09/27 05:27:03;;;;;;;14.03;7.80;;;;;12.90;101500.00;;;;4916972;29;20398;-70
2023/09/27 05:29:49;;;;;;;13.43;7.90;;;;;12.90;101502.00;;;;4913627;29;20233;-72
2023/09/27 05:32:35;;;;;;;10.67;7.80;;;;;12.90;101498.00;;;;4921190;28;20999;-70
2023/09/27 05:35:24;;;;;;;11.30;8.13;;;;;13.00;101502.00;;;;4912529;29;20237;-70
2023/09/27 05:38:10;;;;;;;12.17;7.87;;;;;13.00;101507.00;;;;4920080;29;20233;-70
2023/09/27 05:40:56;;;;;;;11.40;8.30;;;;;13.00;101509.00;;;;4914148;29;20231;-69
2023/09/27 05:43:43;;;;;;;12.03;8.60;;;;;13.00;101512.00;;;;4916313;28;20229;-70
2023/09/27 05:46:32;;;;;;;12.33;8.27;;;;;13.00;101504.00;;;;4925688;29;20392;-69
2023/09/27 05:49:18;;;;;;;12.27;8.33;;;;;13.00;101517.00;;;;4931266;28;20257;-71
2023/09/27 05:52:11;;;;;;;13.47;8.70;;;;;13.00;101512.00;;;;4922674;29;20771;-70
2023/09/27 05:54:58;;;;;;;12.27;8.37;;;;;13.00;101515.00;;;;4924071;28;20252;-67
2023/09/27 05:57:45;;;;;;;11.13;8.03;;;;;13.00;101515.00;;;;4920067;28;20247;-69
2023/09/27 06:00:37;;;;;;;13.80;8.30;;;;;13.00;101517.00;;;;4914602;29;20230;-69
2023/09/27 06:03:25;;;;;;;13.27;8.70;;;;;13.00;101515.00;;;;4922386;29;20230;-69
2023/09/27 06:06:12;;;;;;;9.90;8.13;;;;;13.10;101527.00;;;;4920623;29;20349;-69
2023/09/27 06:09:00;;;;;;;9.83;7.77;;;;;13.10;101535.00;;;;4919503;28;20232;-68
2023/09/27 06:11:46;;;;;;;11.73;8.30;;;;;13.20;101540.00;;;;4919862;28;20713;-70
2023/09/27 06:14:32;;;;;;;13.70;9.00;;;;;13.20;101535.00;;;;4917004;29;20238;-69
2023/09/27 06:17:19;;;;;;;14.40;8.40;;;;;13.20;101523.00;;;;4921815;29;20237;-69
2023/09/27 06:20:07;;;;;;;14.70;8.23;;;;;13.30;101516.00;;;;4918671;29;20242;-68
2023/09/27 06:22:53;;;;;;;11.63;8.73;;;;;13.30;101517.00;;;;4918271;29;20312;-69
2023/09/27 06:25:43;;;;;;;12.53;8.63;;;;;13.30;101525.00;;;;4927772;29;20241;-69
2023/09/27 06:28:30;;;;;;;14.70;9.03;;;;;13.40;101518.00;;;;4918409;29;20238;-70
2023/09/27 06:31:16;;;;;;;11.87;8.97;;;;;13.50;101522.00;;;;4924481;29;20318;-68
2023/09/27 06:34:02;;;;;;;13.40;9.03;;;;;13.60;101522.00;;;;4919172;28;20336;-68
2023/09/27 06:36:49;;;;;;;13.47;9.17;;;;;13.70;101521.00;;;;4926202;29;20714;-71
2023/09/27 06:39:37;;;;;;;14.70;9.63;;;;;13.80;101529.00;;;;4922983;29;20229;-69
2023/09/27 06:42:24;;;;;;;16.37;10.43;;;;;14.00;101525.00;;;;4925473;29;20260;-70
2023/09/27 06:45:12;;;;;;;16.50;10.43;;;;;14.10;101514.00;;;;4914644;29;20239;-69
2023/09/27 06:47:59;;;;;;;17.13;11.00;;;;;14.30;101509.00;;;;4922713;29;20320;-69
2023/09/27 06:50:46;;;;;;;14.23;10.50;;;;;14.50;101506.00;;;;4932316;28;20236;-70
2023/09/27 06:53:33;;;;;;;18.07;10.80;;;;;14.60;101507.00;;;;4920132;29;20261;-70
2023/09/27 06:56:19;;;;;;;18.67;11.27;;;;;14.80;101507.00;;;;4926505;29;20240;-71
2023/09/27 06:59:08;;;;;;;18.70;10.93;;;;;14.90;101519.00;;;;4923977;29;20254;-70
2023/09/27 07:01:54;;;;;;;18.07;10.47;;;;;15.00;101509.00;;;;4913756;29;20242;-69
2023/09/27 07:04:42;;;;;;;21.77;10.00;;;;;15.10;101514.00;;;;4919726;29;20389;-68
2023/09/27 07:07:29;;;;;;;15.40;9.87;;;;;15.10;101505.00;;;;4920598;29;20246;-69
2023/09/27 07:10:16;;;;;;;13.43;9.27;;;;;15.20;101507.00;;;;4919631;29;20340;-70
2023/09/27 07:13:03;;;;;;;11.97;8.70;;;;;15.20;101513.00;;;;4927116;29;20244;-67
2023/09/27 07:15:51;;;;;;;11.07;8.53;;;;;15.20;101502.00;;;;4915299;29;20240;-68
2023/09/27 07:18:38;;;;;;;12.00;9.43;;;;;15.20;101509.00;;;;4926338;29;20361;-70
2023/09/27 07:21:24;;;;;;;11.23;8.43;;;;;15.20;101525.00;;;;4922581;29;20229;-66
2023/09/27 07:24:11;;;;;;;12.57;8.43;;;;;15.20;101538.00;;;;4926338;29;20237;-70
2023/09/27 07:26:58;;;;;;;16.70;8.97;;;;;15.20;101543.00;;;;4912601;29;20238;-69
2023/09/27 07:29:44;;;;;;;11.47;8.17;;;;;15.10;101545.00;;;;4927601;29;20235;-70
2023/09/27 07:32:32;;;;;;;11.00;8.10;;;;;15.10;101536.00;;;;4924998;28;20230;-69
2023/09/27 07:35:21;;;;;;;10.80;8.40;;;;;15.10;101531.00;;;;4920728;29;20305;-68
2023/09/27 07:38:07;;;;;;;15.43;8.13;;;;;15.00;101537.00;;;;4919741;29;20239;-70
2023/09/27 07:40:54;;;;;;;15.70;10.00;;;;;15.10;101541.00;;;;4930132;28;20240;-69
2023/09/27 07:43:40;;;;;;;12.13;8.27;;;;;15.10;101528.00;;;;4923605;29;20242;-69
2023/09/27 07:46:29;;;;;;;11.80;9.10;;;;;15.10;101533.00;;;;4930212;28;20228;-70
2023/09/27 07:49:17;;;;;;;11.07;8.33;;;;;15.20;101536.00;;;;4923294;28;20233;-68
2023/09/27 07:52:04;;;;;;;14.60;9.27;;;;;15.30;101527.00;;;;4928795;29;20375;-69
2023/09/27 07:54:51;;;;;;;12.47;9.33;;;;;15.40;101530.00;;;;4927708;29;20726;-69
2023/09/27 07:57:38;;;;;;;12.80;9.50;;;;;15.50;101521.00;;;;4925974;29;20240;-68
2023/09/27 08:00:28;;;;;;;14.27;10.30;;;;;15.70;101526.00;;;;4927892;29;20255;-69
2023/09/27 08:03:18;;;;;;;14.90;11.23;;;;;15.90;101528.00;;;;4927421;29;20245;-69
2023/09/27 08:06:07;;;;;;;17.83;11.20;;;;;16.00;101531.00;;;;4929080;28;20249;-66
2023/09/27 08:08:54;;;;;;;14.13;11.30;;;;;16.10;101518.00;;;;4920018;28;20241;-69
2023/09/27 08:11:40;;;;;;;14.43;10.93;;;;;16.20;101512.00;;;;4914731;29;20731;-67
2023/09/27 08:14:27;;;;;;;13.20;9.93;;;;;16.40;101503.00;;;;4920990;29;20224;-69
2023/09/27 08:17:13;;;;;;;14.00;10.63;;;;;16.50;101510.00;;;;4921925;29;20257;-70
2023/09/27 08:20:02;;;;;;;15.47;11.43;;;;;16.60;101508.00;;;;4921269;29;20610;-69
2023/09/27 08:22:50;;;;;;;16.13;12.50;;;;;16.70;101512.00;;;;4921443;29;20237;-69
2023/09/27 08:25:37;;;;;;;17.10;12.13;;;;;16.90;101525.00;;;;4924776;29;20233;-65
2023/09/27 08:28:23;;;;;;;13.60;11.80;;;;;17.20;101511.00;;;;4916001;29;20237;-67
2023/09/27 08:31:11;;;;;;;17.17;11.53;;;;;17.30;101512.00;;;;4922699;29;20384;-68
2023/09/27 08:33:59;;;;;;;15.63;11.60;;;;;17.50;101508.00;;;;4923547;28;20618;-69
2023/09/27 08:36:46;;;;;;;17.47;10.70;;;;;17.50;101502.00;;;;4920390;29;20276;-69
2023/09/27 08:39:34;;;;;;;14.20;11.17;;;;;17.60;101507.00;;;;4927148;29;20313;-68
2023/09/27 08:42:22;;;;;;;14.27;10.80;;;;;17.60;101498.00;;;;4926566;29;20237;-69
2023/09/27 08:45:12;;;;;;;19.67;11.60;;;;;17.70;101492.00;;;;4922313;29;20277;-67
2023/09/27 08:47:59;;;;;;;16.77;11.43;;;;;17.70;101489.00;;;;4920850;28;20233;-65
2023/09/27 08:50:46;;;;;;;17.80;11.27;;;;;17.80;101484.00;;;;4916116;29;20276;-68
2023/09/27 08:53:34;;;;;;;16.13;11.37;;;;;17.90;101473.00;;;;4926364;29;20369;-70
2023/09/27 08:56:28;;;;;;;13.37;10.40;;;;;17.90;101479.00;;;;4919796;29;20439;-69
2023/09/27 08:59:14;;;;;;;14.83;10.97;;;;;18.10;101487.00;;;;4915946;29;20256;-68
2023/09/27 09:02:04;;;;;;;13.10;10.73;;;;;18.20;101494.00;;;;4916813;29;20233;-69
2023/09/27 09:04:51;;;;;;;12.70;10.20;;;;;18.40;101495.00;;;;4922463;29;20233;-69
2023/09/27 09:07:37;;;;;;;12.40;10.03;;;;;18.50;101497.00;;;;4922146;29;20255;-68
2023/09/27 09:10:24;;;;;;;12.77;9.83;;;;;18.60;101495.00;;;;4913522;29;20654;-68
2023/09/27 09:13:11;;;;;;;14.90;10.50;;;;;18.70;101494.00;;;;4920460;28;20284;-67
2023/09/27 09:15:58;;;;;;;16.63;10.40;;;;;18.70;101494.00;;;;4920394;29;20264;-68
2023/09/27 09:18:47;;;;;;;14.83;9.90;;;;;18.70;101488.00;;;;4923822;29;20315;-68
2023/09/27 09:21:34;;;;;;;14.30;10.23;;;;;18.80;101492.00;;;;4925887;29;20723;-69
2023/09/27 09:24:21;;;;;;;14.50;9.90;;;;;19.00;101495.00;;;;4924827;29;20249;-68
2023/09/27 09:27:09;;;;;;;15.07;9.77;;;;;19.10;101491.00;;;;4910993;29;20249;-68
2023/09/27 09:29:58;;;;;;;14.77;10.20;;;;;19.20;101485.00;;;;4917493;29;20242;-68
2023/09/27 09:32:50;;;;;;;13.07;9.30;;;;;19.40;101489.00;;;;4911776;28;20229;-65
2023/09/27 09:35:38;;;;;;;13.80;9.67;;;;;19.50;101477.00;;;;4916846;28;20609;-69
2023/09/27 09:38:25;;;;;;;12.60;8.67;;;;;19.60;101482.00;;;;4925687;29;20376;-69
2023/09/27 09:41:12;;;;;;;10.73;8.03;;;;;19.80;101484.00;;;;4920913;28;20310;-68
2023/09/27 09:43:58;;;;;;;11.23;8.07;;;;;19.90;101492.00;;;;4928304;28;20236;-69
2023/09/27 09:46:46;;;;;;;9.30;7.63;;;;;19.90;101487.00;;;;4914742;29;20350;-68
2023/09/27 09:49:34;;;;;;;11.67;7.47;;;;;20.10;101477.00;;;;4920192;28;20231;-68
2023/09/27 09:52:26;;;;;;;9.57;6.80;;;;;20.20;101469.00;;;;4921722;29;20235;-69
2023/09/27 09:55:19;;;;;;;12.53;6.93;;;;;20.30;101469.00;;;;4925460;29;20238;-68
2023/09/27 09:58:33;;;;;;;8.47;6.50;;;;;20.40;101475.00;;;;4922056;29;20240;-68
2023/09/27 10:01:21;;;;;;;10.43;6.27;;;;;20.50;101468.00;;;;4910231;29;20385;-69
2023/09/27 10:04:10;;;;;;;11.70;6.60;;;;;20.60;101468.00;;;;4923405;29;20239;-69
2023/09/27 10:06:58;;;;;;;7.63;6.50;;;;;20.80;101467.00;;;;4921627;29;20235;-68
2023/09/27 10:09:47;;;;;;;11.90;6.13;;;;;20.90;101450.00;;;;4920002;28;20301;-66
2023/09/27 10:12:33;;;;;;;10.93;6.33;;;;;21.20;101446.00;;;;4923723;29;20372;-67
2023/09/27 10:15:21;;;;;;;7.93;5.67;;;;;21.60;101462.00;;;;4917307;28;20604;-70
2023/09/27 10:18:33;;;;;;;13.50;6.47;;;;;21.90;101479.00;;;;4921341;29;20342;-69
2023/09/27 10:21:21;;;;;;;9.20;6.10;;;;;22.10;101483.00;;;;4909012;29;20245;-69
2023/09/27 10:24:07;;;;;;;10.23;5.67;;;;;22.30;101472.00;;;;4917049;28;20236;-68
2023/09/27 10:26:54;;;;;;;6.70;5.30;;;;;22.40;101465.00;;;;4921398;29;20244;-69
2023/09/27 10:29:56;;;;;;;7.53;5.57;;;;;22.60;101458.00;;;;4920828;29;20237;-67
2023/09/27 10:32:42;;;;;;;7.23;5.00;;;;;22.70;101458.00;;;;4923648;28;20277;-67
2023/09/27 10:35:29;;;;;;;7.10;4.80;;;;;22.80;101452.00;;;;4918664;28;20232;-67
2023/09/27 10:38:16;;;;;;;7.57;5.57;;;;;22.80;101443.00;;;;4910316;29;20277;-68
2023/09/27 10:41:03;;;;;;;7.90;5.13;;;;;22.70;101443.00;;;;4911415;29;20780;-65
2023/09/27 10:43:49;;;;;;;6.83;5.07;;;;;22.60;101436.00;;;;4916688;28;20314;-68
2023/09/27 10:46:41;;;;;;;7.57;5.40;;;;;22.70;101445.00;;;;4925788;29;20305;-68
2023/09/27 10:49:30;;;;;;;8.43;5.50;;;;;22.70;101456.00;;;;4923871;29;20229;-66
2023/09/27 10:52:18;;;;;;;8.73;5.30;;;;;22.70;101449.00;;;;4921180;29;20358;-69
2023/09/27 10:55:14;;;;;;;8.03;5.60;;;;;22.80;101436.00;;;;4916522;29;20244;-66
2023/09/27 10:58:01;;;;;;;7.83;5.03;;;;;22.90;101431.00;;;;4926440;29;20244;-65
2023/09/27 11:00:51;;;;;;;7.40;5.67;;;;;23.00;101433.00;;;;4918739;29;20293;-67
2023/09/27 11:03:38;;;;;;;9.67;5.73;;;;;22.90;101425.00;;;;4923665;29;20332;-67
2023/09/27 11:06:25;;;;;;;7.63;4.60;;;;;23.00;101427.00;;;;4919119;29;20236;-69
2023/09/27 11:09:12;;;;;;;6.47;4.20;;;;;23.20;101413.00;;;;4923676;28;20229;-68
2023/09/27 11:12:00;;;;;;;6.37;4.53;;;;;23.50;101421.00;;;;4923632;29;20328;-69
2023/09/27 11:14:46;;;;;;;8.63;5.23;;;;;23.40;101400.00;;;;4921336;29;20237;-67
2023/09/27 11:17:34;;;;;;;7.57;5.40;;;;;23.50;101411.00;;;;4914670;29;20766;-67
2023/09/27 11:20:20;;;;;;;7.43;5.20;;;;;23.50;101403.00;;;;4916081;29;20312;-68
2023/09/27 11:23:07;;;;;;;9.00;5.30;;;;;23.70;101395.00;;;;4923779;29;20276;-68
2023/09/27 11:25:53;;;;;;;6.10;5.00;;;;;23.70;101390.00;;;;4922786;29;20614;-65
2023/09/27 11:28:41;;;;;;;5.70;4.60;;;;;23.70;101383.00;;;;4922005;29;20241;-67
2023/09/27 11:31:29;;;;;;;6.23;4.87;;;;;23.70;101380.00;;;;4919569;29;20246;-68
2023/09/27 11:34:17;;;;;;;5.50;4.30;;;;;23.50;101383.00;;;;4911336;29;20229;-68
2023/09/27 11:37:05;;;;;;;6.40;4.93;;;;;23.40;101376.00;;;;4922629;28;20432;-64
2023/09/27 11:39:54;;;;;;;6.33;4.63;;;;;23.50;101371.00;;;;4926076;29;20357;-67
2023/09/27 11:42:40;;;;;;;7.73;5.37;;;;;23.70;101371.00;;;;4925710;29;20713;-67
2023/09/27 11:45:41;;;;;;;5.23;4.37;;;;;23.90;101378.00;;;;4919493;29;20282;-69
2023/09/27 11:48:33;;;;;;;7.23;4.57;;;;;24.00;101386.00;;;;4915279;29;20344;-69
2023/09/27 11:51:19;;;;;;;6.10;4.30;;;;;24.00;101381.00;;;;4918176;29;20232;-66
2023/09/27 11:54:06;;;;;;;6.03;4.63;;;;;24.00;101376.00;;;;4913907;29;20233;-68
2023/09/27 11:56:53;;;;;;;5.40;4.50;;;;;24.00;101363.00;;;;4924990;28;20612;-64
2023/09/27 11:59:39;;;;;;;6.40;4.63;;;;;24.10;101355.00;;;;4916950;29;20241;-67
2023/09/27 12:02:27;;;;;;;6.72;4.60;;;;;24.20;101348.00;;;;4916117;28;21116;-67
2023/09/27 12:05:22;;;;;;;6.70;4.90;;;;;24.20;101348.00;;;;4923995;29;20225;-66
2023/09/27 12:08:09;;;;;;;8.93;4.40;;;;;24.30;101347.00;;;;4923779;29;20305;-70
2023/09/27 12:10:56;;;;;;;5.32;4.30;;;;;24.30;101340.00;;;;4922042;29;20249;-69
2023/09/27 12:13:42;;;;;;;6.43;4.53;;;;;24.40;101338.00;;;;4923586;29;20229;-68
2023/09/27 12:16:28;;;;;;;6.22;4.63;;;;;24.60;101341.00;;;;4914540;29;20374;-68
2023/09/27 12:19:16;;;;;;;6.60;4.45;;;;;24.80;101328.00;;;;4925948;28;20249;-71
2023/09/27 12:22:03;;;;;;;8.60;5.10;;;;;25.00;101316.00;;;;4923339;29;20366;-71
2023/09/27 12:24:49;;;;;;;6.65;5.05;;;;;25.20;101315.00;;;;4911002;29;20372;-68
2023/09/27 12:27:35;;;;;;;5.75;5.03;;;;;25.30;101316.00;;;;4920772;29;20235;-70
2023/09/27 12:30:22;;;;;;;6.97;5.97;;;;;25.30;101315.00;;;;4927651;29;20301;-69
2023/09/27 12:33:08;;;;;;;8.32;5.57;;;;;25.10;101315.00;;;;4924520;28;21702;-70
2023/09/27 12:35:56;;;;;;;8.43;5.90;;;;;25.10;101306.00;;;;4926671;28;20284;-69
2023/09/27 12:38:42;;;;;;;7.60;5.65;;;;;25.00;101308.00;;;;4924485;29;20276;-72
2023/09/27 12:41:29;;;;;;;7.13;5.70;;;;;24.80;101310.00;;;;4915517;29;20236;-69
2023/09/27 12:44:15;;;;;;;10.65;7.15;;;;;24.50;101302.00;;;;4919201;28;20773;-67
2023/09/27 12:47:07;;;;;;;10.10;6.30;;;;;24.40;101294.00;;;;4920860;29;20854;-70
2023/09/27 12:49:53;;;;;;;8.70;6.10;;;;;24.30;101300.00;;;;4926849;28;20737;-70
2023/09/27 12:52:41;;;;;;;8.63;5.83;;;;;24.20;101294.00;;;;4918840;29;20351;-70
2023/09/27 12:55:27;;;;;;;8.20;5.20;;;;;24.20;101289.00;;;;4921357;28;21100;-71
2023/09/27 12:58:14;;;;;;;9.80;5.57;;;;;24.20;101284.00;;;;4921722;29;20240;-70
2023/09/27 13:01:01;;;;;;;9.45;6.05;;;;;24.20;101290.00;;;;4923113;29;20269;-70
2023/09/27 13:03:48;;;;;;;8.60;5.47;;;;;24.10;101276.00;;;;4915441;29;20317;-70
2023/09/27 13:06:34;;;;;;;8.27;5.67;;;;;24.00;101273.00;;;;4925190;29;20229;-70
2023/09/27 13:09:22;;;;;;;9.00;5.83;;;;;24.00;101281.00;;;;4920656;28;20249;-70
2023/09/27 13:12:08;;;;;;;11.43;6.20;;;;;24.00;101280.00;;;;4927985;29;20240;-71
2023/09/27 13:14:56;;;;;;;6.97;5.40;;;;;24.10;101284.00;;;;4920906;29;20305;-69
2023/09/27 13:17:42;;;;;;;7.30;5.00;;;;;24.10;101276.00;;;;4918523;29;20264;-67
2023/09/27 13:20:28;;;;;;;12.83;5.93;;;;;24.00;101280.00;;;;4922634;29;20233;-70
2023/09/27 13:23:15;;;;;;;8.93;5.23;;;;;24.00;101273.00;;;;4921564;29;20831;-68
2023/09/27 13:26:03;;;;;;;7.43;5.27;;;;;23.80;101272.00;;;;4928057;28;20699;-69
2023/09/27 13:28:49;;;;;;;11.37;5.90;;;;;23.70;101271.00;;;;4915841;29;20244;-68
2023/09/27 13:31:36;;;;;;;87.37;24.40;;;;;23.60;101259.00;;;;4928739;29;20765;-69
2023/09/27 13:34:23;;;;;;;14.17;7.30;;;;;23.50;101262.00;;;;4916851;28;20230;-70
2023/09/27 13:37:09;;;;;;;12.33;6.10;;;;;23.50;101258.00;;;;4916412;29;20917;-66
2023/09/27 13:39:56;;;;;;;8.50;4.60;;;;;23.50;101257.00;;;;4925258;29;20236;-70
2023/09/27 13:42:43;;;;;;;8.40;5.03;;;;;23.30;101263.00;;;;4915803;29;20874;-70